Time;durP1;ratioP1;P1;durP2;ratioP2;P2;SDS_P1;SDS_P2;PMS_P1;PMS_P2;Temp;Humidity;BMP_temperature;BMP_pressure;BME280_temperature;BME280_humidity;BME280_pressure;Samples;Min_cycle;Max_cycle;Signal;HPM_P1;HPM_P2
2022/06/27 00:00:07;;;;;;;;;;;;;;;;;;351491;28;904;-71
2022/06/27 00:00:18;;;;;;;;;;;;;;;;;;351500;28;984;-71
2022/06/27 00:00:28;;;;;;;;;;;;;;;;;;351463;28;1059;-71
2022/06/27 00:00:38;;;;;;;;;;;;;;;;;;351508;28;987;-71
2022/06/27 00:00:49;;;;;;;;;;;;;;;;;;351508;28;1218;-71
2022/06/27 00:00:59;;;;;;;;;;;;;;;;;;351534;28;948;-71
2022/06/27 00:01:09;;;;;;;;;;;;;;;;;;351272;28;1306;-71
2022/06/27 00:01:20;;;;;;;;;;;;;;;;;;349626;28;1351;-71
2022/06/27 00:01:30;;;;;;;;;;;;;;;;;;350137;28;1043;-71
2022/06/27 00:01:40;;;;;;;;;;;;;;;;;;350917;28;845;-71
2022/06/27 00:01:50;;;;;;;;;;;;;;;;;;350663;28;1755;-71
2022/06/27 00:02:01;;;;;;;;;;;;;;;;;;351457;28;951;-72
2022/06/27 00:02:11;;;;;;;;;;;;;;;;;;351432;28;1191;-71
2022/06/27 00:02:21;;;;;;;;;;;;;;;;;;351547;28;786;-71
2022/06/27 00:02:31;;;;;;;;;;;;;;;;;;351443;28;928;-72
2022/06/27 00:02:42;;;;;;;;;;;;;;;;;;351482;28;1070;-71
2022/06/27 00:02:52;;;;;;;;;;;;;;;;;;351165;28;1794;-71
2022/06/27 00:03:02;;;;;;;;;;;;;;;;;;351507;28;912;-71
2022/06/27 00:03:13;;;;;;;;;;;;;;;;;;351471;28;986;-71
2022/06/27 00:03:23;;;;;;;;;;;;;;;;;;351542;28;987;-71
2022/06/27 00:03:33;;;;;;;;;;;;;;;;;;351496;28;1038;-71
2022/06/27 00:03:44;;;;;;;;;;;;;;;;;;351485;28;1086;-71
2022/06/27 00:03:54;;;;;;;;;;;;;;;;;;350514;28;1436;-71
2022/06/27 00:04:04;;;;;;;;;;;;;;;;;;351486;28;916;-71
2022/06/27 00:04:14;;;;;;;;;;;;;;;;;;351499;28;1003;-71
2022/06/27 00:04:25;;;;;;;;;;;;;;;;;;351546;28;991;-71
2022/06/27 00:04:35;;;;;;;;;;;;;;;;;;351447;28;924;-71
2022/06/27 00:04:45;;;;;;;;;;;;;;;;;;351498;27;976;-72
2022/06/27 00:04:55;;;;;;;;;;;;;;;;;;351536;28;941;-72
2022/06/27 00:05:06;;;;;;;;;;;;;;;;;;351503;28;909;-71
2022/06/27 00:05:16;;;;;;;;;;;;;;;;;;351529;28;963;-71
2022/06/27 00:05:27;;;;;;;;;;;;;;;;;;351466;28;932;-71
2022/06/27 00:05:37;;;;;;;;;;;;;;;;;;351508;28;1070;-71
2022/06/27 00:05:47;;;;;;;;;;;;;;;;;;351535;28;924;-72
2022/06/27 00:05:57;;;;;;;;;;;;;;;;;;351461;28;1031;-72
2022/06/27 00:06:09;;;;;;;;;;;;;;;;;;351465;28;909;-71
2022/06/27 00:06:19;;;;;;;;;;;;;;;;;;350793;28;1397;-71
2022/06/27 00:06:30;;;;;;;;;;;;;;;;;;351285;28;996;-71
2022/06/27 00:06:40;;;;;;;;;;;;;;;;;;351502;28;932;-71
2022/06/27 00:06:50;;;;;;;;;;;;;;;;;;351491;28;975;-71
2022/06/27 00:07:00;;;;;;;;;;;;;;;;;;351511;28;916;-71
2022/06/27 00:07:11;;;;;;;;;;;;;;;;;;351442;28;928;-71
2022/06/27 00:07:21;;;;;;;;;;;;;;;;;;350899;28;1969;-71
2022/06/27 00:07:32;;;;;;;;;;;;;;;;;;350680;28;1400;-71
2022/06/27 00:07:42;;;;;;;;;;;;;;;;;;350835;28;1767;-71
2022/06/27 00:07:52;;;;;;;;;;;;;;;;;;351580;28;857;-72
2022/06/27 00:08:03;;;;;;;;;;;;;;;;;;351385;28;807;-72
2022/06/27 00:08:13;;;;;;;;;;;;;;;;;;351483;28;888;-71
2022/06/27 00:08:23;;;;;;;;;;;;;;;;;;351515;28;987;-71
2022/06/27 00:08:34;;;;;;;;;;;;;;;;;;351531;28;855;-71
2022/06/27 00:08:45;;;;;;;;;;;;;;;;;;351424;28;1264;-71
2022/06/27 00:08:56;;;;;;;;;;;;;;;;;;351512;27;806;-71
2022/06/27 00:09:06;;;;;;;;;;;;;;;;;;351480;28;1007;-71
2022/06/27 00:09:17;;;;;;;;;;;;;;;;;;351440;28;1027;-71
2022/06/27 00:09:27;;;;;;;;;;;;;;;;;;351492;28;1027;-71
2022/06/27 00:09:37;;;;;;;;;;;;;;;;;;351487;28;979;-71
2022/06/27 00:09:48;;;;;;;;;;;;;;;;;;351450;28;840;-72
2022/06/27 00:09:58;;;;;;;;;;;;;;;;;;351526;28;782;-72
2022/06/27 00:10:08;;;;;;;;;;;;;;;;;;351456;28;959;-72
2022/06/27 00:10:19;;;;;;;;;;;;;;;;;;351368;28;1016;-71
2022/06/27 00:10:29;;;;;;;;;;;;;;;;;;351522;28;805;-71
2022/06/27 00:10:40;;;;;;;;;;;;;;;;;;351523;27;801;-71
2022/06/27 00:10:50;;;;;;;;;;;;;;;;;;351453;28;964;-71
2022/06/27 00:11:01;;;;;;;;;;;;;;;;;;351470;28;1117;-71
2022/06/27 00:11:11;;;;;;;;;;;;;;;;;;351496;28;920;-71
2022/06/27 00:11:22;;;;;;;;;;;;;;;;;;351458;28;864;-71
2022/06/27 00:11:32;;;;;;;;;;;;;;;;;;351475;28;1015;-71
2022/06/27 00:11:42;;;;;;;;;;;;;;;;;;351510;28;794;-71
2022/06/27 00:11:53;;;;;;;;;;;;;;;;;;351448;28;872;-71
2022/06/27 00:12:03;;;;;;;;;;;;;;;;;;351486;28;912;-71
2022/06/27 00:12:14;;;;;;;;;;;;;;;;;;351441;28;933;-71
2022/06/27 00:12:24;;;;;;;;;;;;;;;;;;350502;28;1385;-71
2022/06/27 00:12:34;;;;;;;;;;;;;;;;;;350636;28;1744;-72
2022/06/27 00:12:45;;;;;;;;;;;;;;;;;;351536;28;786;-72
2022/06/27 00:12:55;;;;;;;;;;;;;;;;;;351451;28;956;-71
2022/06/27 00:13:06;;;;;;;;;;;;;;;;;;351490;28;944;-72
2022/06/27 00:13:16;;;;;;;;;;;;;;;;;;351495;28;890;-72
2022/06/27 00:13:26;;;;;;;;;;;;;;;;;;351461;28;1038;-71
2022/06/27 00:13:36;;;;;;;;;;;;;;;;;;351541;28;991;-71
2022/06/27 00:13:47;;;;;;;;;;;;;;;;;;351471;28;980;-71
2022/06/27 00:13:57;;;;;;;;;;;;;;;;;;351407;28;986;-72
2022/06/27 00:14:07;;;;;;;;;;;;;;;;;;351541;28;845;-71
2022/06/27 00:14:17;;;;;;;;;;;;;;;;;;351474;28;790;-71
2022/06/27 00:14:28;;;;;;;;;;;;;;;;;;351441;28;782;-71
2022/06/27 00:14:38;;;;;;;;;;;;;;;;;;351495;28;924;-71
2022/06/27 00:14:49;;;;;;;;;;;;;;;;;;351545;28;972;-71
2022/06/27 00:14:59;;;;;;;;;;;;;;;;;;350288;28;1315;-71
2022/06/27 00:15:10;;;;;;;;;;;;;;;;;;350821;28;1471;-71
2022/06/27 00:15:20;;;;;;;;;;;;;;;;;;351116;28;1150;-72
2022/06/27 00:15:31;;;;;;;;;;;;;;;;;;351444;28;924;-72
2022/06/27 00:15:41;;;;;;;;;;;;;;;;;;351519;28;944;-71
2022/06/27 00:15:51;;;;;;;;;;;;;;;;;;351265;28;1845;-71
2022/06/27 00:16:01;;;;;;;;;;;;;;;;;;349967;28;1739;-71
2022/06/27 00:16:12;;;;;;;;;;;;;;;;;;350062;28;1190;-71
2022/06/27 00:16:22;;;;;;;;;;;;;;;;;;350063;28;915;-72
2022/06/27 00:16:32;;;;;;;;;;;;;;;;;;350036;28;929;-72
2022/06/27 00:16:42;;;;;;;;;;;;;;;;;;350100;28;929;-72
2022/06/27 00:16:52;;;;;;;;;;;;;;;;;;350117;28;1024;-71
2022/06/27 00:17:03;;;;;;;;;;;;;;;;;;350053;28;1007;-72
2022/06/27 00:17:13;;;;;;;;;;;;;;;;;;350120;28;908;-72
2022/06/27 00:17:23;;;;;;;;;;;;;;;;;;350044;28;1050;-72
2022/06/27 00:17:34;;;;;;;;;;;;;;;;;;350069;28;928;-72
2022/06/27 00:17:44;;;;;;;;;;;;;;;;;;350102;28;940;-71
2022/06/27 00:17:54;;;;;;;;;;;;;;;;;;350096;28;802;-71
2022/06/27 00:18:04;;;;;;;;;;;;;;;;;;349644;28;1503;-71
2022/06/27 00:18:15;;;;;;;;;;;;;;;;;;351408;28;932;-71
2022/06/27 00:18:25;;;;;;;;;;;;;;;;;;351452;28;1015;-71
2022/06/27 00:18:35;;;;;;;;;;;;;;;;;;351393;28;837;-71
2022/06/27 00:18:45;;;;;;;;;;;;;;;;;;351498;28;975;-71
2022/06/27 00:18:55;;;;;;;;;;;;;;;;;;351527;28;881;-71
2022/06/27 00:19:06;;;;;;;;;;;;;;;;;;351456;28;935;-71
2022/06/27 00:19:16;;;;;;;;;;;;;;;;;;351458;28;1000;-71
2022/06/27 00:19:28;;;;;;;;;;;;;;;;;;351487;27;927;-71
2022/06/27 00:19:38;;;;;;;;;;;;;;;;;;351434;28;988;-72
2022/06/27 00:19:48;;;;;;;;;;;;;;;;;;351514;28;782;-71
2022/06/27 00:19:59;;;;;;;;;;;;;;;;;;350646;28;1370;-71
2022/06/27 00:20:09;;;;;;;;;;;;;;;;;;351485;28;1050;-71
2022/06/27 00:20:19;;;;;;;;;;;;;;;;;;351523;28;827;-71
2022/06/27 00:20:30;;;;;;;;;;;;;;;;;;351421;28;951;-71
2022/06/27 00:20:40;;;;;;;;;;;;;;;;;;351469;28;805;-71
2022/06/27 00:20:51;;;;;;;;;;;;;;;;;;351490;28;1003;-71
2022/06/27 00:21:02;;;;;;;;;;;;;;;;;;351469;28;952;-71
2022/06/27 00:21:12;;;;;;;;;;;;;;;;;;351507;28;915;-71
2022/06/27 00:21:22;;;;;;;;;;;;;;;;;;351452;28;888;-71
2022/06/27 00:21:32;;;;;;;;;;;;;;;;;;351463;28;979;-72
2022/06/27 00:21:43;;;;;;;;;;;;;;;;;;351463;28;956;-72
2022/06/27 00:21:53;;;;;;;;;;;;;;;;;;351528;28;833;-72
2022/06/27 00:22:04;;;;;;;;;;;;;;;;;;351510;28;950;-71
2022/06/27 00:22:14;;;;;;;;;;;;;;;;;;351476;28;967;-72
2022/06/27 00:22:25;;;;;;;;;;;;;;;;;;351498;28;872;-71
2022/06/27 00:22:35;;;;;;;;;;;;;;;;;;351434;28;1031;-71
2022/06/27 00:22:45;;;;;;;;;;;;;;;;;;351452;28;904;-71
2022/06/27 00:22:56;;;;;;;;;;;;;;;;;;351507;28;876;-71
2022/06/27 00:23:06;;;;;;;;;;;;;;;;;;351461;28;1873;-72
2022/06/27 00:23:16;;;;;;;;;;;;;;;;;;351513;28;785;-71
2022/06/27 00:23:26;;;;;;;;;;;;;;;;;;351470;28;968;-72
2022/06/27 00:23:37;;;;;;;;;;;;;;;;;;351437;28;1070;-71
2022/06/27 00:23:47;;;;;;;;;;;;;;;;;;351483;28;905;-71
2022/06/27 00:23:57;;;;;;;;;;;;;;;;;;351458;28;900;-72
2022/06/27 00:24:07;;;;;;;;;;;;;;;;;;351497;28;869;-71
2022/06/27 00:24:18;;;;;;;;;;;;;;;;;;351513;28;785;-71
2022/06/27 00:24:28;;;;;;;;;;;;;;;;;;351481;28;928;-71
2022/06/27 00:24:38;;;;;;;;;;;;;;;;;;351504;28;871;-71
2022/06/27 00:24:48;;;;;;;;;;;;;;;;;;351372;28;972;-72
2022/06/27 00:24:59;;;;;;;;;;;;;;;;;;350596;28;1441;-71
2022/06/27 00:25:10;;;;;;;;;;;;;;;;;;351509;28;987;-71
2022/06/27 00:25:20;;;;;;;;;;;;;;;;;;351475;28;883;-72
2022/06/27 00:25:30;;;;;;;;;;;;;;;;;;351462;28;938;-71
2022/06/27 00:25:40;;;;;;;;;;;;;;;;;;351485;28;1180;-71
2022/06/27 00:25:51;;;;;;;;;;;;;;;;;;351414;28;959;-71
2022/06/27 00:26:01;;;;;;;;;;;;;;;;;;351427;28;928;-71
2022/06/27 00:26:11;;;;;;;;;;;;;;;;;;351318;28;1148;-71
2022/06/27 00:26:21;;;;;;;;;;;;;;;;;;351415;28;909;-72
2022/06/27 00:26:31;;;;;;;;;;;;;;;;;;351477;28;932;-71
2022/06/27 00:26:42;;;;;;;;;;;;;;;;;;351455;28;956;-71
2022/06/27 00:26:52;;;;;;;;;;;;;;;;;;351369;28;932;-71
2022/06/27 00:27:02;;;;;;;;;;;;;;;;;;350007;28;1385;-71
2022/06/27 00:27:12;;;;;;;;;;;;;;;;;;350927;28;1712;-71
2022/06/27 00:27:23;;;;;;;;;;;;;;;;;;351328;28;1905;-72
2022/06/27 00:27:33;;;;;;;;;;;;;;;;;;351434;28;865;-71
2022/06/27 00:27:43;;;;;;;;;;;;;;;;;;351473;28;920;-71
2022/06/27 00:27:53;;;;;;;;;;;;;;;;;;351445;28;1717;-71
2022/06/27 00:28:04;;;;;;;;;;;;;;;;;;351524;28;1007;-71
2022/06/27 00:28:14;;;;;;;;;;;;;;;;;;351477;28;834;-72
2022/06/27 00:28:24;;;;;;;;;;;;;;;;;;351473;28;983;-71
2022/06/27 00:28:35;;;;;;;;;;;;;;;;;;351450;28;1015;-71
2022/06/27 00:28:45;;;;;;;;;;;;;;;;;;351431;28;1063;-72
2022/06/27 00:28:55;;;;;;;;;;;;;;;;;;351381;28;983;-72
2022/06/27 00:29:06;;;;;;;;;;;;;;;;;;351431;28;976;-71
2022/06/27 00:29:16;;;;;;;;;;;;;;;;;;351483;28;988;-71
2022/06/27 00:29:26;;;;;;;;;;;;;;;;;;351439;28;1039;-72
2022/06/27 00:29:36;;;;;;;;;;;;;;;;;;351408;28;772;-71
2022/06/27 00:29:46;;;;;;;;;;;;;;;;;;351477;28;953;-71
2022/06/27 00:29:57;;;;;;;;;;;;;;;;;;351414;28;932;-71
2022/06/27 00:30:07;;;;;;;;;;;;;;;;;;351486;28;833;-71
2022/06/27 00:30:17;;;;;;;;;;;;;;;;;;351464;28;936;-71
2022/06/27 00:30:28;;;;;;;;;;;;;;;;;;351438;28;988;-72
2022/06/27 00:30:39;;;;;;;;;;;;;;;;;;351286;28;1829;-71
2022/06/27 00:30:49;;;;;;;;;;;;;;;;;;349995;28;1798;-71
2022/06/27 00:30:59;;;;;;;;;;;;;;;;;;350008;28;863;-71
2022/06/27 00:31:10;;;;;;;;;;;;;;;;;;350038;28;1038;-71
2022/06/27 00:31:20;;;;;;;;;;;;;;;;;;350058;28;968;-71
2022/06/27 00:31:30;;;;;;;;;;;;;;;;;;349988;28;1051;-72
2022/06/27 00:31:40;;;;;;;;;;;;;;;;;;350048;28;976;-71
2022/06/27 00:31:51;;;;;;;;;;;;;;;;;;349982;28;1147;-71
2022/06/27 00:32:01;;;;;;;;;;;;;;;;;;350017;28;976;-71
2022/06/27 00:32:11;;;;;;;;;;;;;;;;;;350063;28;917;-71
2022/06/27 00:32:23;;;;;;;;;;;;;;;;;;349534;28;1437;-71
2022/06/27 00:32:33;;;;;;;;;;;;;;;;;;350815;28;1672;-71
2022/06/27 00:32:43;;;;;;;;;;;;;;;;;;350638;28;1361;-71
2022/06/27 00:32:54;;;;;;;;;;;;;;;;;;350038;28;1790;-71
2022/06/27 00:33:04;;;;;;;;;;;;;;;;;;351192;28;790;-71
2022/06/27 00:33:14;;;;;;;;;;;;;;;;;;349873;28;1421;-71
2022/06/27 00:33:24;;;;;;;;;;;;;;;;;;350049;28;1016;-71
2022/06/27 00:33:34;;;;;;;;;;;;;;;;;;349826;28;913;-71
2022/06/27 00:33:45;;;;;;;;;;;;;;;;;;349930;28;1016;-71
2022/06/27 00:33:55;;;;;;;;;;;;;;;;;;350089;28;810;-71
2022/06/27 00:34:05;;;;;;;;;;;;;;;;;;350024;28;984;-72
2022/06/27 00:34:16;;;;;;;;;;;;;;;;;;350081;28;842;-71
2022/06/27 00:34:26;;;;;;;;;;;;;;;;;;350105;28;857;-71
2022/06/27 00:34:37;;;;;;;;;;;;;;;;;;350032;28;956;-72
2022/06/27 00:34:47;;;;;;;;;;;;;;;;;;350053;28;979;-71
2022/06/27 00:34:57;;;;;;;;;;;;;;;;;;350074;28;1104;-71
2022/06/27 00:35:08;;;;;;;;;;;;;;;;;;350062;28;894;-71
2022/06/27 00:35:18;;;;;;;;;;;;;;;;;;350047;28;957;-71
2022/06/27 00:35:29;;;;;;;;;;;;;;;;;;350008;28;948;-71
2022/06/27 00:35:39;;;;;;;;;;;;;;;;;;350090;28;952;-72
2022/06/27 00:35:50;;;;;;;;;;;;;;;;;;350022;28;1012;-71
2022/06/27 00:36:00;;;;;;;;;;;;;;;;;;350090;28;885;-72
2022/06/27 00:36:11;;;;;;;;;;;;;;;;;;350096;28;913;-71
2022/06/27 00:36:21;;;;;;;;;;;;;;;;;;350023;28;879;-71
2022/06/27 00:36:31;;;;;;;;;;;;;;;;;;350061;28;904;-71
2022/06/27 00:36:41;;;;;;;;;;;;;;;;;;350049;28;995;-71
2022/06/27 00:36:52;;;;;;;;;;;;;;;;;;350060;28;928;-71
2022/06/27 00:37:02;;;;;;;;;;;;;;;;;;350073;28;924;-71
2022/06/27 00:37:12;;;;;;;;;;;;;;;;;;349993;28;1003;-71
2022/06/27 00:37:24;;;;;;;;;;;;;;;;;;349539;28;1805;-71
2022/06/27 00:37:34;;;;;;;;;;;;;;;;;;351442;28;964;-71
2022/06/27 00:37:44;;;;;;;;;;;;;;;;;;351443;28;995;-71
2022/06/27 00:37:54;;;;;;;;;;;;;;;;;;351480;28;833;-71
2022/06/27 00:38:05;;;;;;;;;;;;;;;;;;351384;28;1020;-71
2022/06/27 00:38:15;;;;;;;;;;;;;;;;;;351500;28;876;-71
2022/06/27 00:38:25;;;;;;;;;;;;;;;;;;351469;28;1003;-72
2022/06/27 00:38:35;;;;;;;;;;;;;;;;;;351429;28;963;-71
2022/06/27 00:38:46;;;;;;;;;;;;;;;;;;351422;28;936;-71
2022/06/27 00:38:56;;;;;;;;;;;;;;;;;;351426;28;869;-71
2022/06/27 00:39:06;;;;;;;;;;;;;;;;;;351453;28;924;-72
2022/06/27 00:39:16;;;;;;;;;;;;;;;;;;351472;28;975;-71
2022/06/27 00:39:26;;;;;;;;;;;;;;;;;;351420;28;793;-71
2022/06/27 00:39:37;;;;;;;;;;;;;;;;;;351460;28;987;-71
2022/06/27 00:39:47;;;;;;;;;;;;;;;;;;351397;28;1026;-71
2022/06/27 00:39:57;;;;;;;;;;;;;;;;;;351442;28;912;-71
2022/06/27 00:40:08;;;;;;;;;;;;;;;;;;351473;28;864;-72
2022/06/27 00:40:18;;;;;;;;;;;;;;;;;;351473;28;917;-71
2022/06/27 00:40:28;;;;;;;;;;;;;;;;;;351464;28;790;-72
2022/06/27 00:40:38;;;;;;;;;;;;;;;;;;351413;28;904;-72
2022/06/27 00:40:48;;;;;;;;;;;;;;;;;;351485;28;952;-71
2022/06/27 00:40:58;;;;;;;;;;;;;;;;;;351478;28;862;-71
2022/06/27 00:41:09;;;;;;;;;;;;;;;;;;351473;28;959;-71
2022/06/27 00:41:19;;;;;;;;;;;;;;;;;;351446;28;972;-71
2022/06/27 00:41:29;;;;;;;;;;;;;;;;;;351344;28;1314;-71
2022/06/27 00:41:40;;;;;;;;;;;;;;;;;;350067;28;1438;-71
2022/06/27 00:41:50;;;;;;;;;;;;;;;;;;350692;28;1712;-71
2022/06/27 00:42:00;;;;;;;;;;;;;;;;;;351424;28;983;-71
2022/06/27 00:42:10;;;;;;;;;;;;;;;;;;351473;28;936;-71
2022/06/27 00:42:21;;;;;;;;;;;;;;;;;;351473;28;1775;-71
2022/06/27 00:42:31;;;;;;;;;;;;;;;;;;351463;28;979;-71
2022/06/27 00:42:41;;;;;;;;;;;;;;;;;;351404;28;916;-71
2022/06/27 00:42:51;;;;;;;;;;;;;;;;;;351447;28;904;-71
2022/06/27 00:43:02;;;;;;;;;;;;;;;;;;351437;28;944;-71
2022/06/27 00:43:12;;;;;;;;;;;;;;;;;;351508;28;932;-72
2022/06/27 00:43:22;;;;;;;;;;;;;;;;;;351418;28;931;-71
2022/06/27 00:43:33;;;;;;;;;;;;;;;;;;351417;28;873;-71
2022/06/27 00:43:44;;;;;;;;;;;;;;;;;;351456;28;908;-71
2022/06/27 00:43:54;;;;;;;;;;;;;;;;;;351408;28;984;-71
2022/06/27 00:44:04;;;;;;;;;;;;;;;;;;351387;28;975;-71
2022/06/27 00:44:32;;;;;;;;;;;;;;;;;;351430;28;936;-72
2022/06/27 00:44:43;;;;;;;;;;;;;;;;;;351385;28;932;-71
2022/06/27 00:44:53;;;;;;;;;;;;;;;;;;351439;28;2401;-71
2022/06/27 00:45:04;;;;;;;;;;;;;;;;;;351445;28;975;-71
2022/06/27 00:45:14;;;;;;;;;;;;;;;;;;351478;28;848;-72
2022/06/27 00:45:24;;;;;;;;;;;;;;;;;;351068;28;1849;-71
2022/06/27 00:45:34;;;;;;;;;;;;;;;;;;349861;28;1896;-72
2022/06/27 00:45:45;;;;;;;;;;;;;;;;;;350115;28;774;-71
2022/06/27 00:45:55;;;;;;;;;;;;;;;;;;350053;28;888;-71
2022/06/27 00:46:05;;;;;;;;;;;;;;;;;;350049;28;988;-71
2022/06/27 00:46:15;;;;;;;;;;;;;;;;;;350017;28;988;-71
2022/06/27 00:46:25;;;;;;;;;;;;;;;;;;350003;28;913;-72
2022/06/27 00:46:36;;;;;;;;;;;;;;;;;;349785;28;1390;-71
2022/06/27 00:46:46;;;;;;;;;;;;;;;;;;351504;28;853;-71
2022/06/27 00:46:56;;;;;;;;;;;;;;;;;;351448;28;984;-71
2022/06/27 00:47:07;;;;;;;;;;;;;;;;;;351438;28;1125;-71
2022/06/27 00:47:17;;;;;;;;;;;;;;;;;;350751;28;1305;-71
2022/06/27 00:47:28;;;;;;;;;;;;;;;;;;350715;28;1901;-71
2022/06/27 00:47:38;;;;;;;;;;;;;;;;;;351437;28;920;-71
2022/06/27 00:47:48;;;;;;;;;;;;;;;;;;351427;28;908;-71
2022/06/27 00:47:58;;;;;;;;;;;;;;;;;;351451;28;826;-71
2022/06/27 00:48:09;;;;;;;;;;;;;;;;;;351392;28;975;-72
2022/06/27 00:48:19;;;;;;;;;;;;;;;;;;351474;28;852;-71
2022/06/27 00:48:30;;;;;;;;;;;;;;;;;;351444;28;908;-71
2022/06/27 00:48:40;;;;;;;;;;;;;;;;;;351446;28;1011;-71
2022/06/27 00:48:50;;;;;;;;;;;;;;;;;;351493;28;829;-71
2022/06/27 00:49:00;;;;;;;;;;;;;;;;;;351381;28;1017;-71
2022/06/27 00:49:10;;;;;;;;;;;;;;;;;;350563;28;1350;-71
2022/06/27 00:49:20;;;;;;;;;;;;;;;;;;350138;28;1343;-71
2022/06/27 00:49:31;;;;;;;;;;;;;;;;;;351442;28;1083;-72
2022/06/27 00:49:41;;;;;;;;;;;;;;;;;;351450;28;998;-71
2022/06/27 00:49:52;;;;;;;;;;;;;;;;;;351243;28;1330;-72
2022/06/27 00:50:03;;;;;;;;;;;;;;;;;;351355;28;853;-72
2022/06/27 00:50:13;;;;;;;;;;;;;;;;;;351446;28;908;-71
2022/06/27 00:50:23;;;;;;;;;;;;;;;;;;351444;28;1027;-71
2022/06/27 00:50:33;;;;;;;;;;;;;;;;;;351449;28;853;-71
2022/06/27 00:50:44;;;;;;;;;;;;;;;;;;351470;28;1015;-71
2022/06/27 00:50:56;;;;;;;;;;;;;;;;;;351436;28;988;-71
2022/06/27 00:51:07;;;;;;;;;;;;;;;;;;351424;28;956;-71
2022/06/27 00:51:17;;;;;;;;;;;;;;;;;;349800;28;1474;-71
2022/06/27 00:51:27;;;;;;;;;;;;;;;;;;351460;28;925;-71
2022/06/27 00:51:37;;;;;;;;;;;;;;;;;;350142;28;1460;-71
2022/06/27 00:51:48;;;;;;;;;;;;;;;;;;350803;28;995;-71
2022/06/27 00:51:58;;;;;;;;;;;;;;;;;;351387;28;932;-72
2022/06/27 00:52:10;;;;;;;;;;;;;;;;;;351458;28;792;-71
2022/06/27 00:52:20;;;;;;;;;;;;;;;;;;351459;28;958;-72
2022/06/27 00:52:30;;;;;;;;;;;;;;;;;;350778;28;1420;-71
2022/06/27 00:52:41;;;;;;;;;;;;;;;;;;350785;28;1522;-71
2022/06/27 00:52:51;;;;;;;;;;;;;;;;;;350050;28;987;-71
2022/06/27 00:53:01;;;;;;;;;;;;;;;;;;349843;28;1410;-71
2022/06/27 00:53:12;;;;;;;;;;;;;;;;;;350199;28;1223;-71
2022/06/27 00:53:22;;;;;;;;;;;;;;;;;;351383;28;996;-71
2022/06/27 00:53:34;;;;;;;;;;;;;;;;;;351486;28;768;-71
2022/06/27 00:53:44;;;;;;;;;;;;;;;;;;351439;28;991;-71
2022/06/27 00:53:54;;;;;;;;;;;;;;;;;;351419;28;991;-72
2022/06/27 00:54:05;;;;;;;;;;;;;;;;;;351396;28;940;-72
2022/06/27 00:54:15;;;;;;;;;;;;;;;;;;351476;28;850;-72
2022/06/27 00:54:25;;;;;;;;;;;;;;;;;;351420;28;960;-71
2022/06/27 00:54:36;;;;;;;;;;;;;;;;;;351409;28;952;-71
2022/06/27 00:54:47;;;;;;;;;;;;;;;;;;351405;28;928;-71
2022/06/27 00:54:57;;;;;;;;;;;;;;;;;;351445;28;968;-71
2022/06/27 00:55:08;;;;;;;;;;;;;;;;;;351416;28;913;-72
2022/06/27 00:55:18;;;;;;;;;;;;;;;;;;351152;28;1163;-71
2022/06/27 00:55:29;;;;;;;;;;;;;;;;;;351383;28;886;-71
2022/06/27 00:55:39;;;;;;;;;;;;;;;;;;351467;28;895;-71
2022/06/27 00:55:50;;;;;;;;;;;;;;;;;;351450;28;782;-71
2022/06/27 00:56:01;;;;;;;;;;;;;;;;;;351394;28;909;-71
2022/06/27 00:56:11;;;;;;;;;;;;;;;;;;351357;28;976;-72
2022/06/27 00:56:21;;;;;;;;;;;;;;;;;;351399;28;975;-71
2022/06/27 00:56:32;;;;;;;;;;;;;;;;;;351442;28;944;-71
2022/06/27 00:56:42;;;;;;;;;;;;;;;;;;351519;28;1003;-72
2022/06/27 00:56:53;;;;;;;;;;;;;;;;;;351404;28;935;-71
2022/06/27 00:57:04;;;;;;;;;;;;;;;;;;350156;28;1385;-71
2022/06/27 00:57:15;;;;;;;;;;;;;;;;;;351432;28;873;-71
2022/06/27 00:57:27;;;;;;;;;;;;;;;;;;351409;28;1096;-72
2022/06/27 00:57:37;;;;;;;;;;;;;;;;;;351410;28;879;-71
2022/06/27 00:57:48;;;;;;;;;;;;;;;;;;351395;28;1431;-71
2022/06/27 00:57:59;;;;;;;;;;;;;;;;;;351443;28;928;-72
2022/06/27 00:58:09;;;;;;;;;;;;;;;;;;351391;28;1008;-71
2022/06/27 00:58:20;;;;;;;;;;;;;;;;;;351354;28;939;-71
2022/06/27 00:58:30;;;;;;;;;;;;;;;;;;351467;28;905;-71
2022/06/27 00:58:40;;;;;;;;;;;;;;;;;;351445;28;852;-71
2022/06/27 00:58:50;;;;;;;;;;;;;;;;;;351450;28;905;-71
2022/06/27 00:59:00;;;;;;;;;;;;;;;;;;351380;28;924;-71
2022/06/27 00:59:11;;;;;;;;;;;;;;;;;;351456;28;793;-71
2022/06/27 00:59:21;;;;;;;;;;;;;;;;;;351443;28;991;-71
2022/06/27 00:59:31;;;;;;;;;;;;;;;;;;351463;28;904;-71
2022/06/27 00:59:41;;;;;;;;;;;;;;;;;;351361;28;987;-72
2022/06/27 00:59:52;;;;;;;;;;;;;;;;;;351472;28;928;-71
2022/06/27 01:00:03;;;;;;;;;;;;;;;;;;351431;28;1008;-71
2022/06/27 01:00:14;;;;;;;;;;;;;;;;;;351386;28;894;-71
2022/06/27 01:00:24;;;;;;;;;;;;;;;;;;351379;28;912;-71
2022/06/27 01:00:34;;;;;;;;;;;;;;;;;;351469;28;916;-71
2022/06/27 01:00:44;;;;;;;;;;;;;;;;;;350532;28;1747;-71
2022/06/27 01:00:54;;;;;;;;;;;;;;;;;;349951;28;1830;-71
2022/06/27 01:01:05;;;;;;;;;;;;;;;;;;349799;28;1743;-71
2022/06/27 01:01:15;;;;;;;;;;;;;;;;;;349950;28;1794;-71
2022/06/27 01:01:25;;;;;;;;;;;;;;;;;;350058;28;1829;-71
2022/06/27 01:01:35;;;;;;;;;;;;;;;;;;349508;28;1723;-71
2022/06/27 01:01:46;;;;;;;;;;;;;;;;;;350544;28;1503;-71
2022/06/27 01:01:56;;;;;;;;;;;;;;;;;;350780;28;1780;-71
2022/06/27 01:02:07;;;;;;;;;;;;;;;;;;351416;28;871;-71
2022/06/27 01:02:17;;;;;;;;;;;;;;;;;;350634;28;1786;-71
2022/06/27 01:02:27;;;;;;;;;;;;;;;;;;349993;28;1028;-71
2022/06/27 01:02:38;;;;;;;;;;;;;;;;;;349906;28;1837;-71
2022/06/27 01:02:48;;;;;;;;;;;;;;;;;;350723;28;1684;-70
2022/06/27 01:02:59;;;;;;;;;;;;;;;;;;350124;28;1794;-71
2022/06/27 01:03:09;;;;;;;;;;;;;;;;;;350891;28;1743;-71
2022/06/27 01:03:19;;;;;;;;;;;;;;;;;;350565;28;1782;-71
2022/06/27 01:03:29;;;;;;;;;;;;;;;;;;350057;28;980;-71
2022/06/27 01:03:40;;;;;;;;;;;;;;;;;;349962;28;1823;-71
2022/06/27 01:03:50;;;;;;;;;;;;;;;;;;349776;28;1767;-71
2022/06/27 01:04:01;;;;;;;;;;;;;;;;;;349980;28;1865;-71
2022/06/27 01:04:11;;;;;;;;;;;;;;;;;;349826;28;1798;-71
2022/06/27 01:04:22;;;;;;;;;;;;;;;;;;349981;28;960;-71
2022/06/27 01:04:34;;;;;;;;;;;;;;;;;;349859;28;1781;-71
2022/06/27 01:04:44;;;;;;;;;;;;;;;;;;349940;28;1141;-72
2022/06/27 01:04:54;;;;;;;;;;;;;;;;;;350048;28;1110;-72
2022/06/27 01:05:05;;;;;;;;;;;;;;;;;;350027;28;877;-71
2022/06/27 01:05:15;;;;;;;;;;;;;;;;;;349946;28;984;-71
2022/06/27 01:05:25;;;;;;;;;;;;;;;;;;349977;28;992;-71
2022/06/27 01:05:36;;;;;;;;;;;;;;;;;;350055;28;794;-71
2022/06/27 01:05:52;;;;;;;;;;;;;;;;;;349949;28;920;-71
2022/06/27 01:06:03;;;;;;;;;;;;;;;;;;350024;28;1015;-71
2022/06/27 01:06:13;;;;;;;;;;;;;;;;;;350024;28;953;-71
2022/06/27 01:06:23;;;;;;;;;;;;;;;;;;350000;28;802;-71
2022/06/27 01:06:34;;;;;;;;;;;;;;;;;;350012;28;979;-71
2022/06/27 01:06:44;;;;;;;;;;;;;;;;;;350303;28;1355;-72
2022/06/27 01:06:54;;;;;;;;;;;;;;;;;;351446;28;885;-71
2022/06/27 01:07:06;;;;;;;;;;;;;;;;;;351409;28;991;-72
2022/06/27 01:07:16;;;;;;;;;;;;;;;;;;351331;28;810;-72
2022/06/27 01:07:26;;;;;;;;;;;;;;;;;;351121;28;1975;-71
2022/06/27 01:07:37;;;;;;;;;;;;;;;;;;349846;28;1532;-71
2022/06/27 01:07:48;;;;;;;;;;;;;;;;;;351393;28;825;-71
2022/06/27 01:07:58;;;;;;;;;;;;;;;;;;351461;28;967;-71
2022/06/27 01:08:08;;;;;;;;;;;;;;;;;;351429;28;1011;-71
2022/06/27 01:08:19;;;;;;;;;;;;;;;;;;351375;28;952;-72
2022/06/27 01:08:30;;;;;;;;;;;;;;;;;;351354;28;936;-71
2022/06/27 01:08:40;;;;;;;;;;;;;;;;;;351428;28;1280;-71
2022/06/27 01:08:50;;;;;;;;;;;;;;;;;;351386;28;987;-72
2022/06/27 01:09:00;;;;;;;;;;;;;;;;;;351450;28;963;-72
2022/06/27 01:09:11;;;;;;;;;;;;;;;;;;351412;28;805;-71
2022/06/27 01:09:21;;;;;;;;;;;;;;;;;;351387;28;917;-71
2022/06/27 01:09:32;;;;;;;;;;;;;;;;;;351276;28;1305;-71
2022/06/27 01:09:43;;;;;;;;;;;;;;;;;;351448;28;856;-71
2022/06/27 01:09:56;;;;;;;;;;;;;;;;;;351335;28;956;-71
2022/06/27 01:10:06;;;;;;;;;;;;;;;;;;351435;28;893;-71
2022/06/27 01:10:17;;;;;;;;;;;;;;;;;;351407;28;963;-71
2022/06/27 01:10:27;;;;;;;;;;;;;;;;;;351420;28;774;-71
2022/06/27 01:10:37;;;;;;;;;;;;;;;;;;351319;28;1031;-72
2022/06/27 01:10:48;;;;;;;;;;;;;;;;;;351421;28;999;-71
2022/06/27 01:10:58;;;;;;;;;;;;;;;;;;351415;28;960;-71
2022/06/27 01:11:08;;;;;;;;;;;;;;;;;;351404;28;1106;-71
2022/06/27 01:11:19;;;;;;;;;;;;;;;;;;351351;28;1003;-71
2022/06/27 01:11:30;;;;;;;;;;;;;;;;;;351402;28;1014;-71
2022/06/27 01:11:40;;;;;;;;;;;;;;;;;;350490;28;1515;-71
2022/06/27 01:11:51;;;;;;;;;;;;;;;;;;351363;28;1067;-72
2022/06/27 01:12:02;;;;;;;;;;;;;;;;;;351394;28;921;-71
2022/06/27 01:12:12;;;;;;;;;;;;;;;;;;351402;28;1109;-71
2022/06/27 01:12:23;;;;;;;;;;;;;;;;;;351319;28;1026;-71
2022/06/27 01:12:33;;;;;;;;;;;;;;;;;;351408;28;931;-71
2022/06/27 01:12:43;;;;;;;;;;;;;;;;;;351316;28;925;-71
2022/06/27 01:12:54;;;;;;;;;;;;;;;;;;351422;28;936;-71
2022/06/27 01:13:04;;;;;;;;;;;;;;;;;;351493;28;795;-71
2022/06/27 01:13:15;;;;;;;;;;;;;;;;;;351468;28;853;-71
2022/06/27 01:13:26;;;;;;;;;;;;;;;;;;351317;28;987;-71
2022/06/27 01:13:36;;;;;;;;;;;;;;;;;;351395;28;797;-71
2022/06/27 01:13:46;;;;;;;;;;;;;;;;;;351448;28;856;-71
2022/06/27 01:13:57;;;;;;;;;;;;;;;;;;351484;28;901;-71
2022/06/27 01:14:07;;;;;;;;;;;;;;;;;;351317;28;936;-72
2022/06/27 01:14:18;;;;;;;;;;;;;;;;;;351400;28;1043;-72
2022/06/27 01:14:28;;;;;;;;;;;;;;;;;;351393;28;1027;-71
2022/06/27 01:14:39;;;;;;;;;;;;;;;;;;351424;28;1003;-71